sensor_id;sensor_type;location;lat;lon;timestamp;P1;durP1;ratioP1;P2;durP2;ratioP2
17592;SDS011;8915;51.760;14.300;2024-01-15T00:00:44;16.13;;;9.40;;
17592;SDS011;8915;51.760;14.300;2024-01-15T00:03:12;16.37;;;8.80;;
17592;SDS011;8915;51.760;14.300;2024-01-15T00:05:39;15.50;;;8.73;;
17592;SDS011;8915;51.760;14.300;2024-01-15T00:08:05;13.57;;;7.60;;
17592;SDS011;8915;51.760;14.300;2024-01-15T00:10:32;13.57;;;8.30;;
17592;SDS011;8915;51.760;14.300;2024-01-15T00:12:58;14.30;;;7.93;;
17592;SDS011;8915;51.760;14.300;2024-01-15T00:15:25;16.90;;;8.00;;
17592;SDS011;8915;51.760;14.300;2024-01-15T00:17:53;16.67;;;8.10;;
17592;SDS011;8915;51.760;14.300;2024-01-15T00:20:21;18.37;;;9.53;;
17592;SDS011;8915;51.760;14.300;2024-01-15T00:22:47;15.47;;;7.97;;
17592;SDS011;8915;51.760;14.300;2024-01-15T00:25:13;14.10;;;7.90;;
17592;SDS011;8915;51.760;14.300;2024-01-15T00:27:40;16.50;;;8.10;;
17592;SDS011;8915;51.760;14.300;2024-01-15T00:30:06;16.07;;;8.87;;
17592;SDS011;8915;51.760;14.300;2024-01-15T00:32:34;14.37;;;8.13;;
17592;SDS011;8915;51.760;14.300;2024-01-15T00:35:00;13.23;;;8.00;;
17592;SDS011;8915;51.760;14.300;2024-01-15T00:37:29;13.73;;;7.90;;
17592;SDS011;8915;51.760;14.300;2024-01-15T00:39:56;15.53;;;7.67;;
17592;SDS011;8915;51.760;14.300;2024-01-15T00:42:22;15.57;;;7.77;;
17592;SDS011;8915;51.760;14.300;2024-01-15T00:44:48;13.40;;;7.10;;
17592;SDS011;8915;51.760;14.300;2024-01-15T00:47:15;16.33;;;7.93;;
17592;SDS011;8915;51.760;14.300;2024-01-15T00:49:41;14.67;;;8.30;;
17592;SDS011;8915;51.760;14.300;2024-01-15T00:52:07;13.60;;;6.97;;
17592;SDS011;8915;51.760;14.300;2024-01-15T00:54:35;16.43;;;7.83;;
17592;SDS011;8915;51.760;14.300;2024-01-15T00:57:01;15.40;;;8.10;;
17592;SDS011;8915;51.760;14.300;2024-01-15T00:59:28;12.47;;;7.27;;
17592;SDS011;8915;51.760;14.300;2024-01-15T01:01:54;13.27;;;8.10;;
17592;SDS011;8915;51.760;14.300;2024-01-15T01:04:21;12.03;;;7.37;;
17592;SDS011;8915;51.760;14.300;2024-01-15T01:06:47;15.63;;;7.90;;
17592;SDS011;8915;51.760;14.300;2024-01-15T01:09:13;15.03;;;7.77;;
17592;SDS011;8915;51.760;14.300;2024-01-15T01:11:41;14.40;;;7.47;;
17592;SDS011;8915;51.760;14.300;2024-01-15T01:14:07;12.43;;;7.77;;
17592;SDS011;8915;51.760;14.300;2024-01-15T01:16:34;13.50;;;7.47;;
17592;SDS011;8915;51.760;14.300;2024-01-15T01:19:03;12.20;;;6.83;;
17592;SDS011;8915;51.760;14.300;2024-01-15T01:21:30;13.83;;;7.60;;
17592;SDS011;8915;51.760;14.300;2024-01-15T01:23:56;14.00;;;7.70;;
17592;SDS011;8915;51.760;14.300;2024-01-15T01:26:23;16.23;;;7.47;;
17592;SDS011;8915;51.760;14.300;2024-01-15T01:28:51;14.30;;;7.83;;
17592;SDS011;8915;51.760;14.300;2024-01-15T01:31:17;16.03;;;8.63;;
17592;SDS011;8915;51.760;14.300;2024-01-15T01:33:43;14.87;;;7.73;;
17592;SDS011;8915;51.760;14.300;2024-01-15T01:36:10;13.30;;;7.43;;
17592;SDS011;8915;51.760;14.300;2024-01-15T01:38:37;14.57;;;7.30;;
17592;SDS011;8915;51.760;14.300;2024-01-15T01:41:03;12.80;;;7.63;;
17592;SDS011;8915;51.760;14.300;2024-01-15T01:43:29;12.83;;;7.30;;
17592;SDS011;8915;51.760;14.300;2024-01-15T01:45:57;11.23;;;6.87;;
17592;SDS011;8915;51.760;14.300;2024-01-15T01:48:24;13.00;;;7.90;;
17592;SDS011;8915;51.760;14.300;2024-01-15T01:50:51;12.73;;;7.93;;
17592;SDS011;8915;51.760;14.300;2024-01-15T01:53:18;13.10;;;7.43;;
17592;SDS011;8915;51.760;14.300;2024-01-15T01:55:45;13.97;;;8.47;;
17592;SDS011;8915;51.760;14.300;2024-01-15T01:58:13;13.57;;;7.60;;
17592;SDS011;8915;51.760;14.300;2024-01-15T02:00:39;13.73;;;7.30;;
17592;SDS011;8915;51.760;14.300;2024-01-15T02:03:07;13.43;;;7.70;;
17592;SDS011;8915;51.760;14.300;2024-01-15T02:05:34;15.37;;;7.90;;
17592;SDS011;8915;51.760;14.300;2024-01-15T02:08:01;13.20;;;7.43;;
17592;SDS011;8915;51.760;14.300;2024-01-15T02:10:27;13.50;;;7.27;;
17592;SDS011;8915;51.760;14.300;2024-01-15T02:12:53;12.03;;;6.93;;
17592;SDS011;8915;51.760;14.300;2024-01-15T02:15:20;12.27;;;7.13;;
17592;SDS011;8915;51.760;14.300;2024-01-15T02:17:56;12.23;;;7.13;;
17592;SDS011;8915;51.760;14.300;2024-01-15T02:20:24;12.73;;;7.23;;
17592;SDS011;8915;51.760;14.300;2024-01-15T02:22:50;12.63;;;6.90;;
17592;SDS011;8915;51.760;14.300;2024-01-15T02:25:18;13.83;;;7.63;;
17592;SDS011;8915;51.760;14.300;2024-01-15T02:27:45;12.63;;;7.73;;
17592;SDS011;8915;51.760;14.300;2024-01-15T02:30:12;11.90;;;6.93;;
17592;SDS011;8915;51.760;14.300;2024-01-15T02:32:39;14.53;;;7.70;;
17592;SDS011;8915;51.760;14.300;2024-01-15T02:35:05;14.30;;;7.10;;
17592;SDS011;8915;51.760;14.300;2024-01-15T02:37:32;12.27;;;7.77;;
17592;SDS011;8915;51.760;14.300;2024-01-15T02:39:58;13.40;;;7.57;;
17592;SDS011;8915;51.760;14.300;2024-01-15T02:42:27;11.67;;;6.47;;
17592;SDS011;8915;51.760;14.300;2024-01-15T02:44:53;12.03;;;7.30;;
17592;SDS011;8915;51.760;14.300;2024-01-15T02:47:19;14.37;;;8.10;;
17592;SDS011;8915;51.760;14.300;2024-01-15T02:49:46;17.63;;;8.03;;
17592;SDS011;8915;51.760;14.300;2024-01-15T02:52:12;11.70;;;7.17;;
17592;SDS011;8915;51.760;14.300;2024-01-15T02:54:38;13.87;;;7.57;;
17592;SDS011;8915;51.760;14.300;2024-01-15T02:57:05;12.63;;;7.20;;
17592;SDS011;8915;51.760;14.300;2024-01-15T02:59:32;11.83;;;6.30;;
17592;SDS011;8915;51.760;14.300;2024-01-15T03:01:59;10.00;;;6.20;;
17592;SDS011;8915;51.760;14.300;2024-01-15T03:04:25;14.10;;;6.87;;
17592;SDS011;8915;51.760;14.300;2024-01-15T03:06:51;11.93;;;7.50;;
17592;SDS011;8915;51.760;14.300;2024-01-15T03:09:18;12.47;;;7.27;;
17592;SDS011;8915;51.760;14.300;2024-01-15T03:11:44;12.47;;;7.00;;
17592;SDS011;8915;51.760;14.300;2024-01-15T03:14:10;12.20;;;6.30;;
17592;SDS011;8915;51.760;14.300;2024-01-15T03:16:38;10.60;;;6.03;;
17592;SDS011;8915;51.760;14.300;2024-01-15T03:19:04;13.23;;;7.17;;
17592;SDS011;8915;51.760;14.300;2024-01-15T03:21:31;10.80;;;7.13;;
17592;SDS011;8915;51.760;14.300;2024-01-15T03:23:57;12.60;;;7.27;;
17592;SDS011;8915;51.760;14.300;2024-01-15T03:26:23;11.97;;;7.40;;
17592;SDS011;8915;51.760;14.300;2024-01-15T03:28:50;15.30;;;7.47;;
17592;SDS011;8915;51.760;14.300;2024-01-15T03:31:16;13.27;;;7.73;;
17592;SDS011;8915;51.760;14.300;2024-01-15T03:33:44;12.67;;;7.37;;
17592;SDS011;8915;51.760;14.300;2024-01-15T03:36:10;13.60;;;7.53;;
17592;SDS011;8915;51.760;14.300;2024-01-15T03:38:38;12.67;;;7.10;;
17592;SDS011;8915;51.760;14.300;2024-01-15T03:41:05;12.93;;;7.20;;
17592;SDS011;8915;51.760;14.300;2024-01-15T03:43:32;16.77;;;7.70;;
17592;SDS011;8915;51.760;14.300;2024-01-15T03:45:58;13.23;;;7.97;;
17592;SDS011;8915;51.760;14.300;2024-01-15T03:48:24;13.07;;;7.13;;
17592;SDS011;8915;51.760;14.300;2024-01-15T03:50:52;13.53;;;6.93;;
17592;SDS011;8915;51.760;14.300;2024-01-15T03:53:19;11.53;;;6.67;;
17592;SDS011;8915;51.760;14.300;2024-01-15T03:55:45;13.17;;;6.90;;
17592;SDS011;8915;51.760;14.300;2024-01-15T03:58:12;13.77;;;7.37;;
17592;SDS011;8915;51.760;14.300;2024-01-15T04:00:40;14.23;;;7.73;;
17592;SDS011;8915;51.760;14.300;2024-01-15T04:03:06;13.20;;;7.37;;
17592;SDS011;8915;51.760;14.300;2024-01-15T04:05:33;13.37;;;7.80;;
17592;SDS011;8915;51.760;14.300;2024-01-15T04:08:00;12.53;;;7.37;;
17592;SDS011;8915;51.760;14.300;2024-01-15T04:10:27;15.23;;;7.43;;
17592;SDS011;8915;51.760;14.300;2024-01-15T04:12:53;14.80;;;7.67;;
17592;SDS011;8915;51.760;14.300;2024-01-15T04:15:19;12.93;;;6.53;;
17592;SDS011;8915;51.760;14.300;2024-01-15T04:17:46;11.70;;;6.40;;
17592;SDS011;8915;51.760;14.300;2024-01-15T04:20:12;13.73;;;6.83;;
17592;SDS011;8915;51.760;14.300;2024-01-15T04:22:38;14.10;;;7.30;;
17592;SDS011;8915;51.760;14.300;2024-01-15T04:25:07;14.10;;;7.40;;
17592;SDS011;8915;51.760;14.300;2024-01-15T04:27:33;12.53;;;6.80;;
17592;SDS011;8915;51.760;14.300;2024-01-15T04:30:00;13.83;;;6.90;;
17592;SDS011;8915;51.760;14.300;2024-01-15T04:32:26;12.73;;;6.87;;
17592;SDS011;8915;51.760;14.300;2024-01-15T04:34:52;9.93;;;6.00;;
17592;SDS011;8915;51.760;14.300;2024-01-15T04:37:19;14.50;;;7.03;;
17592;SDS011;8915;51.760;14.300;2024-01-15T04:39:45;11.23;;;6.47;;
17592;SDS011;8915;51.760;14.300;2024-01-15T04:42:13;14.27;;;6.17;;
17592;SDS011;8915;51.760;14.300;2024-01-15T04:44:39;13.30;;;7.20;;
17592;SDS011;8915;51.760;14.300;2024-01-15T04:47:05;12.80;;;6.80;;
17592;SDS011;8915;51.760;14.300;2024-01-15T04:49:32;17.03;;;6.83;;
17592;SDS011;8915;51.760;14.300;2024-01-15T04:51:58;11.40;;;6.67;;
17592;SDS011;8915;51.760;14.300;2024-01-15T04:54:24;10.10;;;6.03;;
17592;SDS011;8915;51.760;14.300;2024-01-15T04:56:51;11.03;;;6.57;;
17592;SDS011;8915;51.760;14.300;2024-01-15T04:59:18;11.67;;;6.27;;
17592;SDS011;8915;51.760;14.300;2024-01-15T05:01:45;11.47;;;6.67;;
17592;SDS011;8915;51.760;14.300;2024-01-15T05:04:11;13.20;;;6.07;;
17592;SDS011;8915;51.760;14.300;2024-01-15T05:06:37;9.67;;;5.70;;
17592;SDS011;8915;51.760;14.300;2024-01-15T05:09:04;12.13;;;6.33;;
17592;SDS011;8915;51.760;14.300;2024-01-15T05:11:30;13.17;;;6.73;;
17592;SDS011;8915;51.760;14.300;2024-01-15T05:13:56;11.23;;;6.30;;
17592;SDS011;8915;51.760;14.300;2024-01-15T05:16:24;13.00;;;7.37;;
17592;SDS011;8915;51.760;14.300;2024-01-15T05:18:50;9.93;;;6.37;;
17592;SDS011;8915;51.760;14.300;2024-01-15T05:21:17;11.60;;;6.57;;
17592;SDS011;8915;51.760;14.300;2024-01-15T05:23:43;11.77;;;6.30;;
17592;SDS011;8915;51.760;14.300;2024-01-15T05:26:09;11.70;;;6.47;;
17592;SDS011;8915;51.760;14.300;2024-01-15T05:28:36;9.90;;;6.00;;
17592;SDS011;8915;51.760;14.300;2024-01-15T05:31:02;12.53;;;6.07;;
17592;SDS011;8915;51.760;14.300;2024-01-15T05:33:30;12.43;;;5.93;;
17592;SDS011;8915;51.760;14.300;2024-01-15T05:35:57;10.07;;;5.37;;
17592;SDS011;8915;51.760;14.300;2024-01-15T05:38:24;13.10;;;6.07;;
17592;SDS011;8915;51.760;14.300;2024-01-15T05:40:50;9.53;;;5.17;;
17592;SDS011;8915;51.760;14.300;2024-01-15T05:43:16;9.73;;;5.60;;
17592;SDS011;8915;51.760;14.300;2024-01-15T05:45:43;12.60;;;5.47;;
17592;SDS011;8915;51.760;14.300;2024-01-15T05:48:09;10.70;;;5.40;;
17592;SDS011;8915;51.760;14.300;2024-01-15T05:50:37;11.57;;;5.60;;
17592;SDS011;8915;51.760;14.300;2024-01-15T05:53:03;11.20;;;5.13;;
17592;SDS011;8915;51.760;14.300;2024-01-15T05:55:30;13.40;;;6.53;;
17592;SDS011;8915;51.760;14.300;2024-01-15T05:57:56;10.73;;;5.77;;
17592;SDS011;8915;51.760;14.300;2024-01-15T06:00:23;13.37;;;6.63;;
17592;SDS011;8915;51.760;14.300;2024-01-15T06:02:49;12.33;;;6.60;;
17592;SDS011;8915;51.760;14.300;2024-01-15T06:05:15;10.90;;;5.07;;
17592;SDS011;8915;51.760;14.300;2024-01-15T06:07:43;9.70;;;5.13;;
17592;SDS011;8915;51.760;14.300;2024-01-15T06:10:10;11.07;;;5.00;;
17592;SDS011;8915;51.760;14.300;2024-01-15T06:12:36;8.80;;;6.00;;
17592;SDS011;8915;51.760;14.300;2024-01-15T06:15:02;9.30;;;5.13;;
17592;SDS011;8915;51.760;14.300;2024-01-15T06:17:29;11.47;;;5.30;;
17592;SDS011;8915;51.760;14.300;2024-01-15T06:19:56;9.07;;;4.90;;
17592;SDS011;8915;51.760;14.300;2024-01-15T06:22:22;7.97;;;4.60;;
17592;SDS011;8915;51.760;14.300;2024-01-15T06:24:50;7.40;;;4.60;;
17592;SDS011;8915;51.760;14.300;2024-01-15T06:27:16;8.87;;;5.47;;
17592;SDS011;8915;51.760;14.300;2024-01-15T06:29:44;11.73;;;4.87;;
17592;SDS011;8915;51.760;14.300;2024-01-15T06:32:12;9.37;;;5.00;;
17592;SDS011;8915;51.760;14.300;2024-01-15T06:34:38;8.90;;;5.07;;
17592;SDS011;8915;51.760;14.300;2024-01-15T06:37:05;8.83;;;4.33;;
17592;SDS011;8915;51.760;14.300;2024-01-15T06:39:31;9.73;;;4.90;;
17592;SDS011;8915;51.760;14.300;2024-01-15T06:41:59;8.17;;;4.63;;
17592;SDS011;8915;51.760;14.300;2024-01-15T06:44:25;9.50;;;4.87;;
17592;SDS011;8915;51.760;14.300;2024-01-15T06:46:52;11.50;;;5.03;;
17592;SDS011;8915;51.760;14.300;2024-01-15T06:49:22;9.73;;;5.40;;
17592;SDS011;8915;51.760;14.300;2024-01-15T06:51:48;9.90;;;5.03;;
17592;SDS011;8915;51.760;14.300;2024-01-15T06:54:15;10.53;;;4.90;;
17592;SDS011;8915;51.760;14.300;2024-01-15T06:56:41;8.87;;;4.57;;
17592;SDS011;8915;51.760;14.300;2024-01-15T06:59:09;12.00;;;5.47;;
17592;SDS011;8915;51.760;14.300;2024-01-15T07:01:35;8.83;;;5.17;;
17592;SDS011;8915;51.760;14.300;2024-01-15T07:04:02;8.37;;;4.77;;
17592;SDS011;8915;51.760;14.300;2024-01-15T07:06:28;9.40;;;5.00;;
17592;SDS011;8915;51.760;14.300;2024-01-15T07:08:55;10.33;;;4.73;;
17592;SDS011;8915;51.760;14.300;2024-01-15T07:11:22;10.67;;;5.03;;
17592;SDS011;8915;51.760;14.300;2024-01-15T07:13:49;9.47;;;4.60;;
17592;SDS011;8915;51.760;14.300;2024-01-15T07:16:16;8.47;;;4.60;;
17592;SDS011;8915;51.760;14.300;2024-01-15T07:18:43;7.77;;;4.50;;
17592;SDS011;8915;51.760;14.300;2024-01-15T07:21:09;11.00;;;4.23;;
17592;SDS011;8915;51.760;14.300;2024-01-15T07:23:36;8.57;;;3.63;;
17592;SDS011;8915;51.760;14.300;2024-01-15T07:26:02;7.60;;;4.30;;
17592;SDS011;8915;51.760;14.300;2024-01-15T07:28:30;7.43;;;4.03;;
17592;SDS011;8915;51.760;14.300;2024-01-15T07:30:57;6.67;;;3.87;;
17592;SDS011;8915;51.760;14.300;2024-01-15T07:33:25;11.10;;;3.73;;
17592;SDS011;8915;51.760;14.300;2024-01-15T07:35:52;5.73;;;3.53;;
17592;SDS011;8915;51.760;14.300;2024-01-15T07:38:18;7.47;;;3.77;;
17592;SDS011;8915;51.760;14.300;2024-01-15T07:40:45;6.70;;;3.53;;
17592;SDS011;8915;51.760;14.300;2024-01-15T07:43:14;7.33;;;3.80;;
17592;SDS011;8915;51.760;14.300;2024-01-15T07:45:40;6.83;;;3.40;;
17592;SDS011;8915;51.760;14.300;2024-01-15T07:48:07;9.63;;;3.90;;
17592;SDS011;8915;51.760;14.300;2024-01-15T07:50:35;7.97;;;3.73;;
17592;SDS011;8915;51.760;14.300;2024-01-15T07:53:02;6.77;;;3.70;;
17592;SDS011;8915;51.760;14.300;2024-01-15T07:55:29;9.17;;;3.63;;
17592;SDS011;8915;51.760;14.300;2024-01-15T07:57:55;7.23;;;4.00;;
17592;SDS011;8915;51.760;14.300;2024-01-15T08:00:24;10.57;;;3.27;;
17592;SDS011;8915;51.760;14.300;2024-01-15T08:02:50;7.27;;;3.43;;
17592;SDS011;8915;51.760;14.300;2024-01-15T08:05:18;8.33;;;4.10;;
17592;SDS011;8915;51.760;14.300;2024-01-15T08:07:45;7.27;;;3.77;;
17592;SDS011;8915;51.760;14.300;2024-01-15T08:10:12;5.13;;;3.27;;
17592;SDS011;8915;51.760;14.300;2024-01-15T08:12:39;7.13;;;3.20;;
17592;SDS011;8915;51.760;14.300;2024-01-15T08:15:05;6.73;;;3.80;;
17592;SDS011;8915;51.760;14.300;2024-01-15T08:17:32;6.33;;;2.80;;
17592;SDS011;8915;51.760;14.300;2024-01-15T08:19:58;9.63;;;4.27;;
17592;SDS011;8915;51.760;14.300;2024-01-15T08:22:25;6.03;;;3.67;;
17592;SDS011;8915;51.760;14.300;2024-01-15T08:24:53;7.47;;;3.63;;
17592;SDS011;8915;51.760;14.300;2024-01-15T08:27:20;6.80;;;3.47;;
17592;SDS011;8915;51.760;14.300;2024-01-15T08:29:46;8.67;;;3.63;;
17592;SDS011;8915;51.760;14.300;2024-01-15T08:32:13;8.00;;;3.77;;
17592;SDS011;8915;51.760;14.300;2024-01-15T08:34:40;10.03;;;5.00;;
17592;SDS011;8915;51.760;14.300;2024-01-15T08:37:07;7.23;;;4.17;;
17592;SDS011;8915;51.760;14.300;2024-01-15T08:39:33;7.57;;;4.57;;
17592;SDS011;8915;51.760;14.300;2024-01-15T08:42:02;8.10;;;3.47;;
17592;SDS011;8915;51.760;14.300;2024-01-15T08:44:29;7.53;;;3.50;;
17592;SDS011;8915;51.760;14.300;2024-01-15T08:46:55;6.33;;;4.10;;
17592;SDS011;8915;51.760;14.300;2024-01-15T08:49:22;7.57;;;4.27;;
17592;SDS011;8915;51.760;14.300;2024-01-15T08:51:48;4.97;;;3.33;;
17592;SDS011;8915;51.760;14.300;2024-01-15T08:54:14;6.83;;;3.60;;
17592;SDS011;8915;51.760;14.300;2024-01-15T08:56:40;8.23;;;4.13;;
17592;SDS011;8915;51.760;14.300;2024-01-15T08:59:08;6.30;;;3.27;;
17592;SDS011;8915;51.760;14.300;2024-01-15T09:01:37;6.50;;;4.00;;
17592;SDS011;8915;51.760;14.300;2024-01-15T09:04:04;8.07;;;3.97;;
17592;SDS011;8915;51.760;14.300;2024-01-15T09:06:30;6.30;;;3.83;;
17592;SDS011;8915;51.760;14.300;2024-01-15T09:08:57;6.47;;;4.10;;
17592;SDS011;8915;51.760;14.300;2024-01-15T09:11:23;7.13;;;4.17;;
17592;SDS011;8915;51.760;14.300;2024-01-15T09:13:49;7.03;;;3.80;;
17592;SDS011;8915;51.760;14.300;2024-01-15T09:16:18;6.60;;;4.07;;
17592;SDS011;8915;51.760;14.300;2024-01-15T09:18:44;7.23;;;3.63;;
17592;SDS011;8915;51.760;14.300;2024-01-15T09:21:12;7.13;;;3.67;;
17592;SDS011;8915;51.760;14.300;2024-01-15T09:23:38;8.77;;;3.90;;
17592;SDS011;8915;51.760;14.300;2024-01-15T09:26:04;8.03;;;3.80;;
17592;SDS011;8915;51.760;14.300;2024-01-15T09:28:34;5.67;;;3.70;;
17592;SDS011;8915;51.760;14.300;2024-01-15T09:31:00;9.67;;;3.77;;
17592;SDS011;8915;51.760;14.300;2024-01-15T09:33:28;7.13;;;4.23;;
17592;SDS011;8915;51.760;14.300;2024-01-15T09:35:54;6.70;;;3.60;;
17592;SDS011;8915;51.760;14.300;2024-01-15T09:38:20;5.83;;;3.70;;
17592;SDS011;8915;51.760;14.300;2024-01-15T09:40:47;8.63;;;4.03;;
17592;SDS011;8915;51.760;14.300;2024-01-15T09:43:13;7.27;;;4.03;;
17592;SDS011;8915;51.760;14.300;2024-01-15T09:45:40;6.90;;;3.87;;
17592;SDS011;8915;51.760;14.300;2024-01-15T09:48:07;7.87;;;4.53;;
17592;SDS011;8915;51.760;14.300;2024-01-15T09:50:35;7.33;;;4.23;;
17592;SDS011;8915;51.760;14.300;2024-01-15T09:53:02;7.30;;;3.97;;
17592;SDS011;8915;51.760;14.300;2024-01-15T09:55:29;6.93;;;3.73;;
17592;SDS011;8915;51.760;14.300;2024-01-15T09:57:57;7.80;;;4.20;;
17592;SDS011;8915;51.760;14.300;2024-01-15T10:00:25;6.30;;;4.20;;
17592;SDS011;8915;51.760;14.300;2024-01-15T10:02:52;7.83;;;3.97;;
17592;SDS011;8915;51.760;14.300;2024-01-15T10:05:19;9.40;;;3.83;;
17592;SDS011;8915;51.760;14.300;2024-01-15T10:07:46;7.43;;;3.67;;
17592;SDS011;8915;51.760;14.300;2024-01-15T10:10:15;9.10;;;3.43;;
17592;SDS011;8915;51.760;14.300;2024-01-15T10:12:41;7.17;;;3.63;;
17592;SDS011;8915;51.760;14.300;2024-01-15T10:15:09;6.23;;;3.27;;
17592;SDS011;8915;51.760;14.300;2024-01-15T10:17:37;4.50;;;2.90;;
17592;SDS011;8915;51.760;14.300;2024-01-15T10:20:03;6.00;;;3.63;;
17592;SDS011;8915;51.760;14.300;2024-01-15T10:22:34;5.57;;;3.30;;
17592;SDS011;8915;51.760;14.300;2024-01-15T10:25:04;6.97;;;3.37;;
17592;SDS011;8915;51.760;14.300;2024-01-15T10:27:31;5.53;;;3.40;;
17592;SDS011;8915;51.760;14.300;2024-01-15T10:29:59;9.77;;;3.37;;
17592;SDS011;8915;51.760;14.300;2024-01-15T10:32:27;5.50;;;3.33;;
17592;SDS011;8915;51.760;14.300;2024-01-15T10:34:54;4.87;;;3.03;;
17592;SDS011;8915;51.760;14.300;2024-01-15T10:37:20;7.37;;;3.50;;
17592;SDS011;8915;51.760;14.300;2024-01-15T10:39:47;6.73;;;3.40;;
17592;SDS011;8915;51.760;14.300;2024-01-15T10:42:14;5.90;;;3.07;;
17592;SDS011;8915;51.760;14.300;2024-01-15T10:44:43;7.77;;;3.20;;
17592;SDS011;8915;51.760;14.300;2024-01-15T10:47:11;4.60;;;2.73;;
17592;SDS011;8915;51.760;14.300;2024-01-15T10:49:38;5.53;;;3.07;;
17592;SDS011;8915;51.760;14.300;2024-01-15T10:52:05;7.20;;;3.50;;
17592;SDS011;8915;51.760;14.300;2024-01-15T10:54:32;7.67;;;3.20;;
17592;SDS011;8915;51.760;14.300;2024-01-15T10:56:58;7.07;;;3.30;;
17592;SDS011;8915;51.760;14.300;2024-01-15T10:59:26;5.27;;;2.93;;
17592;SDS011;8915;51.760;14.300;2024-01-15T11:01:54;4.70;;;3.57;;
17592;SDS011;8915;51.760;14.300;2024-01-15T11:04:21;4.80;;;2.87;;
17592;SDS011;8915;51.760;14.300;2024-01-15T11:06:50;5.60;;;3.10;;
17592;SDS011;8915;51.760;14.300;2024-01-15T11:09:19;3.70;;;3.03;;
17592;SDS011;8915;51.760;14.300;2024-01-15T11:11:46;4.73;;;2.87;;
17592;SDS011;8915;51.760;14.300;2024-01-15T11:17:04;8.20;;;3.40;;
17592;SDS011;8915;51.760;14.300;2024-01-15T11:19:37;8.13;;;3.67;;
17592;SDS011;8915;51.760;14.300;2024-01-15T11:22:06;5.17;;;2.80;;
17592;SDS011;8915;51.760;14.300;2024-01-15T11:24:37;6.20;;;3.07;;
17592;SDS011;8915;51.760;14.300;2024-01-15T11:27:05;7.13;;;3.03;;
17592;SDS011;8915;51.760;14.300;2024-01-15T11:29:32;7.93;;;3.57;;
17592;SDS011;8915;51.760;14.300;2024-01-15T11:32:02;5.23;;;3.47;;
17592;SDS011;8915;51.760;14.300;2024-01-15T11:37:16;5.37;;;3.30;;
17592;SDS011;8915;51.760;14.300;2024-01-15T11:39:42;10.13;;;3.90;;
17592;SDS011;8915;51.760;14.300;2024-01-15T11:42:08;9.00;;;3.23;;
17592;SDS011;8915;51.760;14.300;2024-01-15T11:44:36;5.37;;;3.30;;
17592;SDS011;8915;51.760;14.300;2024-01-15T11:47:05;6.27;;;3.17;;
17592;SDS011;8915;51.760;14.300;2024-01-15T11:49:37;7.13;;;4.10;;
17592;SDS011;8915;51.760;14.300;2024-01-15T11:52:20;7.33;;;3.73;;
17592;SDS011;8915;51.760;14.300;2024-01-15T11:54:48;7.30;;;3.70;;
17592;SDS011;8915;51.760;14.300;2024-01-15T11:57:25;11.63;;;4.57;;
17592;SDS011;8915;51.760;14.300;2024-01-15T11:59:56;6.50;;;3.57;;
17592;SDS011;8915;51.760;14.300;2024-01-15T12:02:24;9.03;;;3.87;;
17592;SDS011;8915;51.760;14.300;2024-01-15T12:04:50;6.30;;;3.33;;
17592;SDS011;8915;51.760;14.300;2024-01-15T12:07:16;8.03;;;4.30;;
17592;SDS011;8915;51.760;14.300;2024-01-15T12:09:43;7.97;;;3.37;;
17592;SDS011;8915;51.760;14.300;2024-01-15T12:12:10;5.50;;;3.07;;
17592;SDS011;8915;51.760;14.300;2024-01-15T12:14:46;4.37;;;3.13;;
17592;SDS011;8915;51.760;14.300;2024-01-15T12:17:12;7.67;;;3.73;;
17592;SDS011;8915;51.760;14.300;2024-01-15T12:19:40;7.07;;;3.20;;
17592;SDS011;8915;51.760;14.300;2024-01-15T12:22:06;6.53;;;3.10;;
17592;SDS011;8915;51.760;14.300;2024-01-15T12:24:34;7.53;;;3.30;;
17592;SDS011;8915;51.760;14.300;2024-01-15T12:27:02;7.93;;;3.27;;
17592;SDS011;8915;51.760;14.300;2024-01-15T12:29:28;5.43;;;3.07;;
17592;SDS011;8915;51.760;14.300;2024-01-15T12:31:55;7.27;;;3.20;;
17592;SDS011;8915;51.760;14.300;2024-01-15T12:34:21;6.70;;;3.20;;
17592;SDS011;8915;51.760;14.300;2024-01-15T12:36:49;5.37;;;3.40;;
17592;SDS011;8915;51.760;14.300;2024-01-15T12:39:15;6.37;;;3.53;;
17592;SDS011;8915;51.760;14.300;2024-01-15T12:41:42;7.20;;;3.07;;
17592;SDS011;8915;51.760;14.300;2024-01-15T12:44:08;6.67;;;3.37;;
17592;SDS011;8915;51.760;14.300;2024-01-15T12:46:35;4.97;;;3.17;;
17592;SDS011;8915;51.760;14.300;2024-01-15T12:49:03;5.17;;;3.10;;
17592;SDS011;8915;51.760;14.300;2024-01-15T12:51:30;5.73;;;3.50;;
17592;SDS011;8915;51.760;14.300;2024-01-15T12:53:57;9.50;;;4.27;;
17592;SDS011;8915;51.760;14.300;2024-01-15T12:56:24;9.40;;;3.57;;
17592;SDS011;8915;51.760;14.300;2024-01-15T12:58:50;8.23;;;4.60;;
17592;SDS011;8915;51.760;14.300;2024-01-15T13:01:16;7.17;;;3.30;;
17592;SDS011;8915;51.760;14.300;2024-01-15T13:03:43;7.17;;;4.07;;
17592;SDS011;8915;51.760;14.300;2024-01-15T13:06:09;8.87;;;4.30;;
17592;SDS011;8915;51.760;14.300;2024-01-15T13:08:36;6.30;;;3.50;;
17592;SDS011;8915;51.760;14.300;2024-01-15T13:11:04;5.40;;;3.53;;
17592;SDS011;8915;51.760;14.300;2024-01-15T13:13:31;5.67;;;3.53;;
17592;SDS011;8915;51.760;14.300;2024-01-15T13:15:59;4.97;;;3.47;;
17592;SDS011;8915;51.760;14.300;2024-01-15T13:18:26;8.27;;;3.63;;
17592;SDS011;8915;51.760;14.300;2024-01-15T13:20:52;7.40;;;3.50;;
17592;SDS011;8915;51.760;14.300;2024-01-15T13:23:19;6.37;;;3.60;;
17592;SDS011;8915;51.760;14.300;2024-01-15T13:25:45;6.67;;;3.70;;
17592;SDS011;8915;51.760;14.300;2024-01-15T13:28:13;5.40;;;3.50;;
17592;SDS011;8915;51.760;14.300;2024-01-15T13:30:40;4.23;;;3.20;;
17592;SDS011;8915;51.760;14.300;2024-01-15T13:33:06;7.20;;;3.57;;
17592;SDS011;8915;51.760;14.300;2024-01-15T13:35:33;5.77;;;3.27;;
17592;SDS011;8915;51.760;14.300;2024-01-15T13:38:01;5.43;;;3.43;;
17592;SDS011;8915;51.760;14.300;2024-01-15T13:40:28;5.33;;;3.40;;
17592;SDS011;8915;51.760;14.300;2024-01-15T13:42:54;6.53;;;3.40;;
17592;SDS011;8915;51.760;14.300;2024-01-15T13:45:22;6.23;;;3.50;;
17592;SDS011;8915;51.760;14.300;2024-01-15T13:47:49;5.10;;;3.40;;
17592;SDS011;8915;51.760;14.300;2024-01-15T13:50:15;5.90;;;3.60;;
17592;SDS011;8915;51.760;14.300;2024-01-15T13:52:42;6.73;;;3.20;;
17592;SDS011;8915;51.760;14.300;2024-01-15T13:55:08;4.03;;;3.20;;
17592;SDS011;8915;51.760;14.300;2024-01-15T13:57:34;5.47;;;3.83;;
17592;SDS011;8915;51.760;14.300;2024-01-15T14:00:01;6.00;;;3.40;;
17592;SDS011;8915;51.760;14.300;2024-01-15T14:02:31;9.23;;;3.73;;
17592;SDS011;8915;51.760;14.300;2024-01-15T14:04:58;8.67;;;5.30;;
17592;SDS011;8915;51.760;14.300;2024-01-15T14:07:24;6.50;;;4.10;;
17592;SDS011;8915;51.760;14.300;2024-01-15T14:09:50;8.37;;;4.00;;
17592;SDS011;8915;51.760;14.300;2024-01-15T14:12:17;6.97;;;4.00;;
17592;SDS011;8915;51.760;14.300;2024-01-15T14:14:44;6.27;;;3.43;;
17592;SDS011;8915;51.760;14.300;2024-01-15T14:17:10;9.90;;;4.90;;
17592;SDS011;8915;51.760;14.300;2024-01-15T14:19:38;6.83;;;4.03;;
17592;SDS011;8915;51.760;14.300;2024-01-15T14:22:04;6.20;;;4.07;;
17592;SDS011;8915;51.760;14.300;2024-01-15T14:24:31;6.10;;;4.27;;
17592;SDS011;8915;51.760;14.300;2024-01-15T14:26:57;6.40;;;4.43;;
17592;SDS011;8915;51.760;14.300;2024-01-15T14:29:24;12.43;;;5.07;;
17592;SDS011;8915;51.760;14.300;2024-01-15T14:31:52;8.20;;;4.70;;
17592;SDS011;8915;51.760;14.300;2024-01-15T14:34:18;8.13;;;4.67;;
17592;SDS011;8915;51.760;14.300;2024-01-15T14:36:48;15.13;;;5.07;;
17592;SDS011;8915;51.760;14.300;2024-01-15T14:39:15;12.13;;;5.63;;
17592;SDS011;8915;51.760;14.300;2024-01-15T14:41:41;5.87;;;4.13;;
17592;SDS011;8915;51.760;14.300;2024-01-15T14:44:08;8.87;;;4.53;;